Granville, North Dakota
Current Conditions -  °F | °C
As of 5:54 AM on Tuesday 27 Jan 2015 (Local Time) from KMOT Reporting Station
Clear Clear  
Wind Chill: 25°   Ceiling: Unl
Heat Index: 30°   Visibility: 10mi
Dew Point: 27°   Wind: 5mph
Humidity: 88%   Direction: 130°SE
Pressure: 29.84"   Gusts: NA
Location:  48.27°N, 100.84°W
Report Text: KMOT 271154Z AUTO 13004KT 10SM CLR M01/M03 A2984 RMK AO2 SLP126 T10111028 11006 21022 56014
Loading
Personal Weather Stations






























Interactive Weather Map New forecast layout! Learn more

10-Day Weather Forecast

Advertisements
Track Severe Weather on mobile